Platteville, Colorado
Current Conditions -  °F | °C
As of 12:15 PM on Saturday 25 Oct 2014 (Local Time) from KEIK Reporting Station
Clear Clear  
Wind Chill: 76°   Ceiling: Unl
Heat Index: 76°   Visibility: 10mi
Dew Point: 18°   Wind: 10mph
Humidity: 11%   Direction: 160°SSE
Pressure: 30.19"   Gusts: NA
Location:  40.21°N, 104.82°W
Report Text: KEIK 251815Z AUTO 16009KT 10SM CLR 24/M08 A3019 RMK AO2 T02441080
Loading
Personal Weather Stations






























Interactive Weather Map
Tropical Storm Tracking
New forecast layout! Learn more

10-Day Weather Forecast

Advertisements
Track Severe Weather on mobile